Terminal Aerodrome Forecast
Issued by NWS

Home | Current Version | Previous Version | Graphics & Text | Print | Product List | Glossary On
Versions: 1 2 3 4 5 6 7 8 9 10 11 12 13 14 15 16 17 18 19 20
000
FTUS42 KMHX 261720
TAFOAJ
TAF
KOAJ 261720Z 2618/2718 12008KT P6SM BKN030 BKN040
     FM262200 16009KT P6SM FEW025 BKN040
     FM271000 19003KT P6SM BKN030
     FM271700 17006KT P6SM FEW030 BKN150
      AMD LTD TO CLD VIS AND WIND=

USA.gov is the U.S. government's official web portal to all federal, state and local government web resources and services.